Time;durP1;ratioP1;P1;durP2;ratioP2;P2;SDS_P1;SDS_P2;PMS_P1;PMS_P2;Temp;Humidity;BMP_temperature;BMP_pressure;BME280_temperature;BME280_humidity;BME280_pressure;Samples;Min_cycle;Max_cycle;Signal;HPM_P1;HPM_P2
2023/06/13 00:00:42;;;;;;;15.02;4.82;;;;;;;21.70;100.00;99385.91;10329594;28;20047;-72
2023/06/13 00:05:46;;;;;;;8.35;4.45;;;;;;;21.69;100.00;99379.69;10329171;28;20049;-72
2023/06/13 00:10:48;;;;;;;11.23;4.93;;;;;;;21.58;100.00;99370.72;10326685;28;20043;-72
2023/06/13 00:15:51;;;;;;;10.82;4.85;;;;;;;21.48;100.00;99369.84;10328107;28;20046;-72
2023/06/13 00:20:54;;;;;;;6.80;4.05;;;;;;;21.60;100.00;99397.50;10327415;28;20048;-73
2023/06/13 00:25:56;;;;;;;8.70;4.15;;;;;;;21.56;100.00;99378.28;10328620;28;20095;-72
2023/06/13 00:30:57;;;;;;;11.93;4.03;;;;;;;21.41;100.00;99352.00;10327597;28;20521;-72
2023/06/13 00:35:58;;;;;;;12.90;4.10;;;;;;;21.62;100.00;99379.91;10327684;28;20045;-72
2023/06/13 00:40:58;;;;;;;10.95;4.30;;;;;;;21.57;100.00;99368.28;10328371;28;20406;-72
2023/06/13 00:46:00;;;;;;;8.77;3.83;;;;;;;21.23;100.00;99308.41;10328591;28;20038;-74
2023/06/13 00:51:02;;;;;;;10.57;4.20;;;;;;;21.57;100.00;99368.28;10327168;28;20058;-72
2023/06/13 00:56:05;;;;;;;9.65;3.78;;;;;;;21.01;100.00;99276.16;10327635;28;20143;-72
2023/06/13 01:01:08;;;;;;;17.15;3.85;;;;;;;21.29;100.00;99335.16;10326620;28;20049;-73
2023/06/13 01:06:10;;;;;;;10.43;4.03;;;;;;;20.94;100.00;99279.09;10325767;28;20038;-72
2023/06/13 01:11:23;;;;;;;6.80;4.60;;;;;;;21.36;100.00;99356.59;10328258;28;20054;-72
2023/06/13 01:16:28;;;;;;;8.97;4.00;;;;;;;21.34;100.00;99353.28;10326873;28;20038;-72
2023/06/13 01:21:32;;;;;;;18.17;4.32;;;;;;;21.28;100.00;99349.75;10305307;28;20061;-72
2023/06/13 01:26:56;;;;;;;22.15;4.47;;;;;;;20.93;100.00;99309.84;10326108;28;20046;-73
2023/06/13 01:31:58;;;;;;;18.17;4.65;;;;;;;21.23;100.00;99365.13;10286638;28;20042;-73
2023/06/13 01:36:59;;;;;;;16.40;5.15;;;;;;;21.18;100.00;99374.03;10286047;28;20052;-73
2023/06/13 01:42:00;;;;;;;9.38;4.53;;;;;;;21.14;100.00;99375.59;10286025;28;20039;-73
2023/06/13 01:47:19;;;;;;;13.50;4.55;;;;;;;21.14;100.00;99386.41;10285727;28;20053;-74
2023/06/13 01:52:28;;;;;;;12.25;4.05;;;;;;;21.13;100.00;99395.59;10285624;28;20512;-73
2023/06/13 01:57:37;;;;;;;26.90;4.50;;;;;;;21.21;100.00;99400.50;10369393;28;20069;-73
2023/06/13 02:02:39;;;;;;;10.40;4.20;;;;;;;21.19;100.00;99395.34;10326546;28;20055;-72
2023/06/13 02:07:40;;;;;;;9.57;4.13;;;;;;;20.87;100.00;99322.50;10324874;28;20038;-73
2023/06/13 02:12:41;;;;;;;17.48;4.47;;;;;;;21.48;100.00;99413.09;10392584;28;20121;-73
2023/06/13 02:17:42;;;;;;;5.50;3.75;;;;;;;21.50;100.00;99417.16;10324610;28;20043;-74
2023/06/13 02:22:42;;;;;;;10.18;4.70;;;;;;;21.42;100.00;99410.38;10324734;28;20039;-72
2023/06/13 02:27:43;;;;;;;11.20;4.18;;;;;;;21.16;100.00;99338.34;10325392;28;20133;-73
2023/06/13 02:32:46;;;;;;;14.75;4.03;;;;;;;21.50;100.00;99359.59;10328342;28;20034;-73
2023/06/13 02:37:47;;;;;;;11.63;4.38;;;;;;;22.31;99.61;99415.84;10331743;28;20046;-74
2023/06/13 02:42:49;;;;;;;9.32;3.63;;;;;;;22.67;96.85;99372.56;10331800;28;20053;-75
2023/06/13 02:47:50;;;;;;;8.98;3.72;;;;;;;22.63;96.05;99342.53;10331268;28;20045;-73
2023/06/13 02:52:51;;;;;;;6.22;3.67;;;;;;;23.40;94.15;99429.13;10331479;28;20038;-73
2023/06/13 02:57:52;;;;;;;9.60;3.70;;;;;;;24.04;90.71;99420.22;10366856;28;20080;-72
2023/06/13 03:03:02;;;;;;;11.88;3.83;;;;;;;24.63;87.91;99425.88;10370873;28;20050;-73
2023/06/13 03:08:04;;;;;;;11.73;3.45;;;;;;;25.47;83.46;99431.91;10371188;28;20073;-74
2023/06/13 03:13:04;;;;;;;11.07;3.88;;;;;;;25.74;81.90;99434.84;10439509;28;20033;-72
2023/06/13 03:18:06;;;;;;;9.75;3.45;;;;;;;25.98;79.40;99427.78;10370475;28;20045;-72
2023/06/13 03:23:07;;;;;;;8.55;3.42;;;;;;;26.56;76.12;99425.59;10371143;28;20091;-73
2023/06/13 03:28:09;;;;;;;13.63;3.90;;;;;;;26.97;74.92;99451.41;10438409;28;20037;-74
2023/06/13 03:33:11;;;;;;;10.05;3.42;;;;;;;26.56;75.22;99438.41;10369128;28;20042;-75
2023/06/13 03:38:13;;;;;;;11.98;3.78;;;;;;;25.81;76.21;99387.44;10364461;28;20052;-73
2023/06/13 03:43:14;;;;;;;8.98;3.75;;;;;;;25.87;76.39;99427.09;10364400;28;20034;-73
2023/06/13 03:48:15;;;;;;;8.18;3.38;;;;;;;25.87;75.84;99419.75;10364055;28;20401;-74
2023/06/13 03:53:15;;;;;;;9.18;3.90;;;;;;;25.67;74.85;99390.06;10366860;28;20469;-72
2023/06/13 03:58:18;;;;;;;7.78;3.80;;;;;;;25.96;74.78;99423.44;10369186;28;20057;-72
2023/06/13 04:03:19;;;;;;;7.70;4.10;;;;;;;26.52;73.67;99427.31;10325474;28;20133;-73
2023/06/13 04:08:20;;;;;;;13.75;4.28;;;;;;;26.88;71.30;99357.81;10395508;28;20289;-72
2023/06/13 04:13:21;;;;;;;7.00;3.42;;;;;;;27.56;69.03;99392.53;10328564;28;20092;-73
2023/06/13 04:18:23;;;;;;;6.30;3.10;;;;;;;28.14;68.20;99419.16;10328955;28;20088;-73
2023/06/13 04:23:25;;;;;;;8.70;3.93;;;;;;;28.77;67.17;99424.81;10328086;28;20138;-73
2023/06/13 04:28:26;;;;;;;12.85;3.33;;;;;;;29.55;63.91;99406.88;10327844;28;20046;-73
2023/06/13 04:33:27;;;;;;;14.40;4.20;;;;;;;29.82;61.13;99346.78;10327465;28;20049;-74
2023/06/13 04:38:29;;;;;;;14.15;4.00;;;;;;;30.25;61.90;99409.84;10312141;28;20050;-74
2023/06/13 04:43:33;;;;;;;11.70;3.80;;;;;;;30.08;61.49;99407.84;10322709;28;20042;-74
2023/06/13 04:48:35;;;;;;;8.95;3.70;;;;;;;30.16;61.08;99400.78;10326928;28;20054;-72
2023/06/13 04:53:37;;;;;;;7.72;3.63;;;;;;;30.85;58.79;99391.75;10393605;28;20049;-73
2023/06/13 04:58:38;;;;;;;12.10;3.40;;;;;;;31.10;57.58;99368.91;10309431;28;20062;-74
2023/06/13 05:03:40;;;;;;;9.27;3.25;;;;;;;31.19;56.29;99414.72;10288255;28;20046;-73
2023/06/13 05:08:41;;;;;;;11.75;3.13;;;;;;;30.89;56.80;99395.44;10287399;28;20046;-72
2023/06/13 05:13:42;;;;;;;8.40;3.33;;;;;;;29.89;56.82;99265.78;10353591;28;20134;-73
2023/06/13 05:18:44;;;;;;;8.55;3.20;;;;;;;30.35;57.12;99403.22;10286092;28;20035;-73
2023/06/13 05:23:48;;;;;;;9.07;3.15;;;;;;;29.79;58.06;99397.50;10286818;28;20076;-72
2023/06/13 05:28:49;;;;;;;9.65;3.35;;;;;;;29.53;59.96;99395.47;10286785;28;20104;-73
2023/06/13 05:33:49;;;;;;;8.50;3.13;;;;;;;29.57;59.45;99381.97;10285829;28;20049;-73
2023/06/13 05:38:50;;;;;;;12.57;3.47;;;;;;;29.43;59.47;99379.34;10286037;28;20078;-73
2023/06/13 05:43:51;;;;;;;8.07;3.10;;;;;;;29.57;58.54;99379.22;10291007;28;20095;-75
2023/06/13 05:48:52;;;;;;;6.72;3.00;;;;;;;29.40;58.14;99303.38;10340417;28;20038;-74
2023/06/13 05:53:52;;;;;;;10.68;3.45;;;;;;;29.73;58.76;99358.50;10338025;28;20038;-74
2023/06/13 05:58:53;;;;;;;11.45;2.90;;;;;;;29.69;58.15;99337.59;10341338;28;20065;-74
2023/06/13 06:03:54;;;;;;;9.98;2.92;;;;;;;29.42;58.26;99317.53;10340211;28;20039;-74
2023/06/13 06:08:55;;;;;;;9.02;2.90;;;;;;;30.09;58.76;99362.09;10347984;28;20080;-74
2023/06/13 06:13:56;;;;;;;6.85;2.55;;;;;;;30.27;57.93;99352.78;10412852;28;20091;-74
2023/06/13 06:18:57;;;;;;;5.90;2.78;;;;;;;30.41;57.33;99369.84;10400583;28;20038;-74
2023/06/13 06:23:57;;;;;;;9.75;3.30;;;;;;;29.95;58.85;99315.72;10343496;28;20045;-75
2023/06/13 06:28:58;;;;;;;10.73;3.20;;;;;;;29.70;58.59;99350.94;10414276;28;20100;-73
2023/06/13 06:33:59;;;;;;;12.95;2.97;;;;;;;29.33;59.07;99325.72;10326038;28;20494;-73
2023/06/13 06:39:00;;;;;;;8.15;2.70;;;;;;;29.82;58.64;99347.56;10395954;28;20114;-76
2023/06/13 06:44:00;;;;;;;7.38;2.97;;;;;;;30.20;57.65;99352.44;10320526;28;20046;-74
2023/06/13 06:49:02;;;;;;;8.90;3.33;;;;;;;30.14;56.68;99282.50;10328990;28;20046;-75
2023/06/13 06:54:02;;;;;;;13.55;3.38;;;;;;;30.38;56.40;99274.59;10335308;28;20121;-75
2023/06/13 06:59:03;;;;;;;9.35;3.03;;;;;;;30.75;54.77;99296.91;10351337;28;20148;-78
2023/06/13 07:04:04;;;;;;;13.75;3.22;;;;;;;31.21;55.49;99300.78;10347851;28;20041;-82
2023/06/13 07:09:05;;;;;;;8.18;3.22;;;;;;;31.21;53.99;99267.84;10350542;28;20550;-76
2023/06/13 07:14:06;;;;;;;5.68;2.53;;;;;;;31.26;52.51;99218.28;10342344;28;20035;-76
2023/06/13 07:19:06;;;;;;;10.30;2.97;;;;;;;30.99;52.12;99216.00;10344754;28;20046;-76
2023/06/13 07:24:07;;;;;;;5.82;2.72;;;;;;;31.52;51.02;99324.34;10345944;28;20046;-74
2023/06/13 07:29:08;;;;;;;16.75;3.70;;;;;;;31.25;52.14;99235.84;10340182;28;20694;-74
2023/06/13 07:34:09;;;;;;;8.98;2.88;;;;;;;31.80;50.93;99256.81;10344613;28;20049;-76
2023/06/13 07:39:13;;;;;;;10.63;3.30;;;;;;;32.09;49.54;99259.81;10329829;28;20494;-75
2023/06/13 07:44:14;;;;;;;8.85;2.70;;;;;;;32.46;47.92;99289.03;10328856;28;20401;-73
2023/06/13 07:49:14;;;;;;;12.10;2.90;;;;;;;32.62;47.95;99264.44;10322687;28;20052;-73
2023/06/13 07:54:15;;;;;;;44.65;4.80;;;;;;;33.20;48.29;99278.13;10290170;28;20055;-73
2023/06/13 07:59:16;;;;;;;9.30;3.00;;;;;;;33.56;47.90;99274.53;10289716;28;20059;-73
2023/06/13 08:04:17;;;;;;;8.93;3.00;;;;;;;33.87;46.97;99278.59;10297429;28;20051;-76
2023/06/13 08:09:18;;;;;;;8.90;3.00;;;;;;;34.04;44.93;99280.25;10315088;28;20042;-74
2023/06/13 08:14:19;;;;;;;10.75;2.97;;;;;;;33.91;44.66;99260.19;10329073;28;20433;-76
2023/06/13 08:19:20;;;;;;;12.23;3.00;;;;;;;33.91;42.67;99218.06;10300252;28;20558;-80
2023/06/13 08:24:21;;;;;;;9.55;2.65;;;;;;;34.50;42.24;99267.75;10364596;28;20096;-77
2023/06/13 08:29:23;;;;;;;8.95;2.53;;;;;;;34.66;40.67;99283.53;10306570;28;20058;-81
2023/06/13 08:34:24;;;;;;;9.48;3.00;;;;;;;34.59;40.16;99273.13;10329438;28;20042;-77
2023/06/13 08:39:25;;;;;;;8.45;2.80;;;;;;;34.93;38.08;99296.41;10334126;28;20034;-85
2023/06/13 08:44:27;;;;;;;8.80;2.58;;;;;;;34.30;38.06;99238.44;10344127;28;20554;-74
2023/06/13 08:49:27;;;;;;;11.30;2.80;;;;;;;34.79;38.15;99287.78;10408391;28;20145;-76
2023/06/13 08:54:31;;;;;;;19.48;3.88;;;;;;;34.59;38.55;99272.31;10410207;28;20117;-78
2023/06/13 08:59:36;;;;;;;9.18;2.63;;;;;;;34.13;39.04;99211.22;10335754;28;20138;-76
2023/06/13 09:04:38;;;;;;;53.97;16.27;;;;;;;34.77;38.41;99257.00;10336671;28;20038;-81
2023/06/13 09:09:40;;;;;;;;;;;;;;;35.17;37.40;99253.25;10338624;28;20046;-76
2023/06/13 09:14:42;;;;;;;12.23;3.78;;;;;;;35.15;36.82;99250.03;10410343;28;19922;-76
2023/06/13 09:19:43;;;;;;;15.85;3.78;;;;;;;35.48;36.43;99229.44;10342530;28;20047;-73
2023/06/13 09:24:45;;;;;;;7.07;3.28;;;;;;;35.25;35.63;99212.81;10405252;28;20042;-79
2023/06/13 09:29:49;;;;;;;12.00;3.92;;;;;;;35.51;35.27;99239.78;10324991;28;20046;-76
2023/06/13 09:34:50;;;;;;;20.40;4.40;;;;;;;35.61;35.85;99220.72;10326467;28;20134;-75
2023/06/13 09:39:51;;;;;;;51.42;6.25;;;;;;;35.63;35.26;99221.16;10325911;28;20141;-75
2023/06/13 09:44:52;;;;;;;16.83;4.37;;;;;;;34.94;35.80;99201.47;10326748;28;20045;-76
2023/06/13 09:49:57;;;;;;;7.20;2.75;;;;;;;35.10;35.05;99170.28;10326810;28;20046;-75
2023/06/13 09:54:58;;;;;;;12.10;2.63;;;;;;;35.13;36.19;99206.25;10325981;28;20528;-76
2023/06/13 09:59:59;;;;;;;10.15;2.97;;;;;;;34.87;35.92;99184.72;10326101;28;20085;-75
2023/06/13 10:05:00;;;;;;;9.85;3.30;;;;;;;34.68;35.85;99204.78;10326084;28;20046;-74
2023/06/13 10:10:01;;;;;;;9.68;3.00;;;;;;;33.80;35.91;99105.63;10391756;28;20053;-75
2023/06/13 10:15:06;;;;;;;33.80;10.65;;;;;;;34.35;38.69;99176.75;10318778;28;20045;-77
2023/06/13 10:20:10;;;;;;;7.43;3.38;;;;;;;34.75;35.99;99177.34;10324916;28;20038;-77
2023/06/13 10:25:13;;;;;;;8.30;2.85;;;;;;;34.64;36.33;99169.97;10324527;28;20082;-75
2023/06/13 10:30:53;;;;;;;10.05;3.08;;;;;;;34.36;34.62;99079.09;10324705;28;20038;-75
2023/06/13 10:36:41;;;;;;;7.88;2.42;;;;;;;35.49;35.02;99143.50;10372918;28;20050;-75
2023/06/13 10:41:56;;;;;;;7.75;2.65;;;;;;;34.87;34.37;99068.84;10334203;28;20053;-76
2023/06/13 10:46:57;;;;;;;6.75;1.98;;;;;;;34.82;35.52;99076.59;10387509;28;20057;-76
2023/06/13 10:51:59;;;;;;;10.77;2.80;;;;;;;34.97;36.61;99119.88;10319473;28;20088;-75
2023/06/13 10:57:01;;;;;;;11.73;3.25;;;;;;;34.72;36.14;99135.91;10328895;28;20062;-76
2023/06/13 11:02:03;;;;;;;21.92;3.20;;;;;;;34.94;35.30;99124.19;10329773;28;20049;-79
2023/06/13 11:07:25;;;;;;;10.93;3.00;;;;;;;35.41;35.08;99150.81;10336398;28;20043;-76
2023/06/13 11:12:25;;;;;;;;;;;;;;;35.53;35.05;99147.13;10347325;28;20054;-75
2023/06/13 11:17:27;;;;;;;8.43;2.57;;;;;;;35.61;34.46;99146.13;10349034;28;19929;-76
2023/06/13 11:22:29;;;;;;;6.60;2.60;;;;;;;35.91;34.63;99147.47;10427955;28;20065;-80
2023/06/13 11:27:33;;;;;;;8.43;2.78;;;;;;;35.95;34.15;99142.78;10346713;28;20555;-77
2023/06/13 11:32:35;;;;;;;6.82;2.70;;;;;;;35.75;33.13;99151.13;10345721;28;20043;-76
2023/06/13 11:37:46;;;;;;;6.82;2.15;;;;;;;35.22;32.46;99079.06;10346689;28;20116;-77
2023/06/13 11:42:49;;;;;;;9.57;2.45;;;;;;;34.77;33.32;99036.31;10344295;28;20077;-75
2023/06/13 11:47:59;;;;;;;20.40;2.80;;;;;;;35.31;32.03;99112.75;10341961;28;20103;-76
2023/06/13 11:53:07;;;;;;;8.48;2.70;;;;;;;35.49;34.09;99113.13;10383758;28;20046;-79
2023/06/13 11:58:08;;;;;;;23.77;3.30;;;;;;;34.90;32.56;99004.66;10328983;28;20058;-76
2023/06/13 12:03:08;;;;;;;9.93;2.70;;;;;;;35.55;32.74;99086.81;10328855;28;20510;-77
2023/06/13 12:08:09;;;;;;;8.23;2.47;;;;;;;34.98;32.06;99014.69;10351699;28;20043;-76
2023/06/13 12:13:11;;;;;;;7.18;2.50;;;;;;;35.27;33.21;99067.72;10316965;28;20050;-79
2023/06/13 12:18:12;;;;;;;8.03;2.27;;;;;;;35.06;32.22;99062.59;10308839;28;20042;-77
2023/06/13 12:23:12;;;;;;;18.90;3.33;;;;;;;35.05;33.30;99069.25;10377664;28;20042;-76
2023/06/13 12:28:15;;;;;;;8.35;2.60;;;;;;;35.02;32.88;99056.16;10320856;28;20046;-73
2023/06/13 12:33:19;;;;;;;6.35;2.17;;;;;;;35.04;32.55;99073.19;10324361;28;20046;-75
2023/06/13 12:38:26;;;;;;;12.23;2.80;;;;;;;34.72;33.77;99058.66;10326821;28;20043;-75
2023/06/13 12:43:29;;;;;;;13.43;2.63;;;;;;;34.84;33.18;99077.06;10341264;28;20129;-74
2023/06/13 12:48:37;;;;;;;9.35;2.50;;;;;;;34.18;32.92;98983.00;10335382;28;20042;-73
2023/06/13 12:54:16;;;;;;;5.13;2.05;;;;;;;34.74;32.80;99073.69;10310008;28;20054;-76
2023/06/13 12:59:17;;;;;;;17.30;3.25;;;;;;;34.37;34.32;99053.13;10318557;28;20061;-76
2023/06/13 13:04:18;;;;;;;11.45;2.35;;;;;;;34.34;34.14;99078.66;10324590;28;20114;-74
2023/06/13 13:09:19;;;;;;;6.95;2.90;;;;;;;33.79;38.10;99061.94;10382395;28;20106;-75
2023/06/13 13:14:20;;;;;;;23.02;3.40;;;;;;;33.40;40.21;99045.16;10325883;28;20621;-75
2023/06/13 13:19:22;;;;;;;8.05;2.90;;;;;;;33.07;41.54;99013.19;10326649;28;20054;-75
2023/06/13 13:24:25;;;;;;;8.97;2.87;;;;;;;32.69;42.90;98994.41;10320859;28;20087;-75
2023/06/13 13:34:45;;;;;;;13.10;3.42;;;;;;;32.57;44.79;99074.94;10320227;28;20183;-74
2023/06/13 13:39:46;;;;;;;25.42;3.60;;;;;;;32.37;45.56;99089.59;10321614;28;20532;-77
2023/06/13 13:45:05;;;;;;;9.30;3.10;;;;;;;32.24;45.88;99094.28;10319966;28;20420;-74
2023/06/13 13:50:07;;;;;;;12.77;2.90;;;;;;;31.75;46.39;99026.38;10319628;28;20049;-74
2023/06/13 13:55:10;;;;;;;11.83;2.93;;;;;;;31.66;46.70;99033.91;10319160;28;20050;-76
2023/06/13 14:00:11;;;;;;;16.88;3.55;;;;;;;31.81;47.83;99074.44;10321903;28;20120;-75
2023/06/13 14:05:12;;;;;;;17.60;3.78;;;;;;;31.71;48.71;99071.31;10325253;28;20133;-75
2023/06/13 14:10:13;;;;;;;13.32;3.42;;;;;;;31.63;49.29;99084.00;10324793;28;20038;-75
2023/06/13 14:15:13;;;;;;;12.95;3.75;;;;;;;31.47;49.92;99085.75;10325677;28;20566;-74
2023/06/13 14:20:16;;;;;;;12.73;3.58;;;;;;;30.79;50.21;99001.00;10324811;28;20063;-74
2023/06/13 14:25:16;;;;;;;20.08;4.38;;;;;;;30.79;50.45;99034.69;10313238;28;20099;-74
2023/06/13 14:30:18;;;;;;;20.30;4.47;;;;;;;30.88;51.05;99093.00;10324870;28;20554;-75
2023/06/13 14:35:19;;;;;;;16.80;5.20;;;;;;;30.33;50.88;99035.63;10314785;28;20057;-77
2023/06/13 14:40:19;;;;;;;18.48;4.75;;;;;;;30.51;51.01;99093.84;10296720;28;20050;-76
2023/06/13 14:45:23;;;;;;;12.63;4.38;;;;;;;30.60;51.39;99144.75;10294964;28;20103;-75
2023/06/13 14:50:24;;;;;;;27.30;4.78;;;;;;;30.58;51.65;99157.19;10309778;28;20443;-73
2023/06/13 14:55:25;;;;;;;18.27;4.50;;;;;;;30.55;52.08;99179.78;10388753;28;20167;-73
2023/06/13 15:00:25;;;;;;;17.42;4.13;;;;;;;30.58;51.58;99192.81;10305733;28;20524;-72
2023/06/13 15:05:26;;;;;;;16.35;3.97;;;;;;;30.55;51.28;99209.94;10310555;28;20053;-72
2023/06/13 15:15:52;;;;;;;13.23;4.25;;;;;;;30.38;53.60;99235.44;10320821;28;20047;-74
2023/06/13 15:20:53;;;;;;;17.27;5.57;;;;;;;30.22;55.47;99252.41;10301896;28;20500;-73
2023/06/13 15:25:54;;;;;;;12.68;5.20;;;;;;;29.80;57.40;99245.81;10327709;28;20046;-76
2023/06/13 15:30:55;;;;;;;21.45;4.97;;;;;;;29.44;61.39;99266.06;10324796;28;20082;-75
2023/06/13 15:35:56;;;;;;;21.98;4.18;;;;;;;29.10;62.59;99261.31;10328073;28;20073;-74
2023/06/13 15:40:57;;;;;;;14.10;4.22;;;;;;;28.93;64.60;99261.22;10324331;28;20492;-73
2023/06/13 15:45:58;;;;;;;15.55;5.15;;;;;;;28.74;65.79;99245.88;10324354;28;20110;-75
2023/06/13 15:50:58;;;;;;;14.18;5.78;;;;;;;28.57;66.67;99243.88;10382587;28;20073;-75
2023/06/13 15:56:03;;;;;;;11.50;5.10;;;;;;;28.63;67.05;99275.41;10320319;28;20062;-73
2023/06/13 16:01:05;;;;;;;19.08;5.05;;;;;;;28.05;65.90;99259.91;10329517;28;20065;-79
2023/06/13 16:06:06;;;;;;;29.98;7.28;;;;;;;27.70;63.51;99288.81;10322644;28;20050;-74
2023/06/13 16:11:07;;;;;;;37.25;8.38;;;;;;;27.30;63.45;99322.13;10319307;28;20046;-80
2023/06/13 16:16:08;;;;;;;23.65;5.07;;;;;;;26.80;64.24;99321.16;10326804;28;20077;-75
2023/06/13 16:21:09;;;;;;;21.52;3.97;;;;;;;26.36;65.59;99306.09;10326405;28;20485;-75
2023/06/13 16:26:10;;;;;;;19.30;3.80;;;;;;;25.88;66.35;99279.91;10320670;28;20172;-73
2023/06/13 16:31:11;;;;;;;18.05;3.63;;;;;;;24.93;66.78;99156.66;10327177;28;20046;-76
2023/06/13 16:36:11;;;;;;;16.67;3.47;;;;;;;25.21;66.85;99231.03;10328319;28;20042;-74
2023/06/13 16:41:12;;;;;;;14.20;3.00;;;;;;;25.40;67.14;99271.03;10327514;28;20119;-77
2023/06/13 16:46:13;;;;;;;9.88;3.10;;;;;;;25.15;68.04;99274.88;10320639;28;20531;-75
2023/06/13 16:51:14;;;;;;;16.20;4.22;;;;;;;24.97;69.23;99269.06;10386344;28;20042;-73
2023/06/13 16:56:15;;;;;;;17.85;4.20;;;;;;;24.85;69.40;99276.81;10326660;28;20058;-75
2023/06/13 17:01:16;;;;;;;17.75;3.65;;;;;;;24.89;68.58;99280.59;10304233;28;20528;-73
2023/06/13 17:06:17;;;;;;;11.00;3.65;;;;;;;25.01;68.74;99319.03;10370813;28;20050;-73
2023/06/13 17:11:18;;;;;;;15.35;3.47;;;;;;;24.62;68.68;99261.31;10287007;28;20057;-72
2023/06/13 17:16:19;;;;;;;9.48;2.85;;;;;;;25.12;68.06;99338.72;10287024;28;20035;-73
2023/06/13 17:21:20;;;;;;;11.65;3.35;;;;;;;25.01;67.86;99319.03;10286346;28;20503;-73
2023/06/13 17:26:21;;;;;;;12.15;2.88;;;;;;;24.79;67.79;99283.41;10304211;28;20042;-77
2023/06/13 17:31:21;;;;;;;13.18;3.40;;;;;;;24.90;67.13;99281.41;10326412;28;20050;-75
2023/06/13 17:36:22;;;;;;;18.15;3.05;;;;;;;25.03;67.77;99327.69;10325301;28;20030;-76
2023/06/13 17:41:23;;;;;;;11.68;3.20;;;;;;;25.02;67.94;99319.84;10326738;28;20071;-74
2023/06/13 17:46:24;;;;;;;9.50;3.28;;;;;;;24.91;68.32;99313.69;10326344;28;20509;-72
2023/06/13 17:51:25;;;;;;;10.05;2.97;;;;;;;24.64;68.59;99295.22;10325129;28;20069;-74
2023/06/13 17:56:27;;;;;;;8.00;2.97;;;;;;;24.46;69.05;99247.88;10324367;28;20055;-74
2023/06/13 18:01:29;;;;;;;16.23;3.72;;;;;;;24.77;68.99;99304.63;10331205;28;20531;-75
2023/06/13 18:06:31;;;;;;;8.20;3.00;;;;;;;24.64;69.34;99302.56;10338606;28;20042;-74
2023/06/13 18:11:32;;;;;;;16.05;4.80;;;;;;;24.53;69.90;99299.13;10405284;28;20132;-74
2023/06/13 18:16:35;;;;;;;27.73;9.77;;;;;;;24.46;69.86;99280.47;10339722;28;20113;-73
2023/06/13 18:21:35;;;;;;;79.88;33.67;;;;;;;24.31;69.32;99256.13;10339612;28;20521;-77
2023/06/13 18:26:36;;;;;;;52.75;25.67;;;;;;;24.48;69.02;99293.75;10339244;28;20042;-75
2023/06/13 18:31:37;;;;;;;59.08;31.67;;;;;;;24.52;68.81;99316.53;10337084;28;20069;-73
2023/06/13 18:36:38;;;;;;;121.45;58.53;;;;;;;24.34;68.79;99280.81;10336987;28;20070;-73
2023/06/13 18:41:39;;;;;;;223.15;98.95;;;;;;;24.36;68.96;99273.19;10337641;28;20038;-74
2023/06/13 18:46:40;;;;;;;80.90;32.45;;;;;;;24.29;69.29;99261.03;10339267;28;20176;-74
2023/06/13 18:51:41;;;;;;;325.83;125.15;;;;;;;24.30;69.84;99287.09;10337220;28;20141;-74
2023/06/13 18:56:44;;;;;;;147.63;69.20;;;;;;;23.96;70.49;99240.97;10337224;28;20407;-74
2023/06/13 19:01:48;;;;;;;293.17;168.37;;;;;;;23.69;70.15;99204.25;10337896;28;20516;-74
2023/06/13 19:06:49;;;;;;;80.22;46.90;;;;;;;24.20;70.89;99307.00;10337665;28;20285;-74
2023/06/13 19:11:50;;;;;;;22.20;11.35;;;;;;;24.23;70.82;99338.16;10336170;28;20046;-74
2023/06/13 19:16:51;;;;;;;15.27;5.95;;;;;;;24.10;71.35;99335.00;10397723;28;20131;-75
2023/06/13 19:21:52;;;;;;;10.98;4.60;;;;;;;24.13;71.62;99342.56;10331828;28;20456;-75
2023/06/13 19:26:53;;;;;;;11.50;3.42;;;;;;;23.87;72.23;99320.25;10330456;28;20045;-74
2023/06/13 19:31:54;;;;;;;10.27;3.13;;;;;;;23.74;73.30;99317.31;10330494;28;20079;-75
2023/06/13 19:36:55;;;;;;;9.45;2.97;;;;;;;23.58;73.44;99330.94;10320210;28;20139;-75
2023/06/13 19:41:56;;;;;;;7.13;3.25;;;;;;;23.42;73.72;99318.53;10391274;28;20043;-75
2023/06/13 19:46:57;;;;;;;14.43;3.83;;;;;;;23.55;73.30;99342.34;10312723;28;20510;-74
2023/06/13 19:51:58;;;;;;;14.35;3.42;;;;;;;23.38;73.28;99318.28;10309844;28;20410;-75
2023/06/13 19:56:58;;;;;;;11.95;3.45;;;;;;;23.55;72.58;99339.63;10329312;28;20145;-74
2023/06/13 20:01:59;;;;;;;17.25;4.38;;;;;;;23.52;72.62;99342.88;10329423;28;20046;-73
2023/06/13 20:07:01;;;;;;;12.93;4.90;;;;;;;23.51;73.21;99357.50;10329506;28;20533;-74
2023/06/13 20:12:03;;;;;;;10.27;4.05;;;;;;;23.51;73.91;99371.06;10396796;28;20045;-75
2023/06/13 20:17:04;;;;;;;11.13;4.07;;;;;;;23.41;74.07;99352.16;10328539;28;20513;-75
2023/06/13 20:22:06;;;;;;;13.30;4.68;;;;;;;23.30;74.35;99337.00;10328956;28;20410;-74
2023/06/13 20:27:07;;;;;;;12.90;5.22;;;;;;;23.06;75.07;99296.97;10325824;28;20077;-75
2023/06/13 20:32:08;;;;;;;11.98;3.80;;;;;;;23.34;74.90;99335.38;10327688;28;20069;-76
2023/06/13 20:37:10;;;;;;;15.15;3.20;;;;;;;23.39;75.10;99351.59;10328603;28;20042;-74
2023/06/13 20:42:13;;;;;;;14.75;3.10;;;;;;;23.06;75.02;99324.06;10327727;28;20046;-74
2023/06/13 20:47:15;;;;;;;11.67;3.30;;;;;;;23.18;75.19;99351.69;10328831;28;20099;-74
2023/06/13 20:52:16;;;;;;;9.70;3.10;;;;;;;23.08;74.92;99331.94;10366234;28;20046;-74
2023/06/13 20:57:17;;;;;;;9.13;2.97;;;;;;;22.60;75.25;99253.75;10368936;28;20057;-73
2023/06/13 21:02:18;;;;;;;5.90;2.65;;;;;;;22.64;75.53;99265.63;10368751;28;20045;-73
2023/06/13 21:07:19;;;;;;;6.97;3.05;;;;;;;23.08;75.58;99343.56;10436399;28;20042;-73
2023/06/13 21:12:19;;;;;;;10.13;3.42;;;;;;;22.95;76.21;99327.91;10367075;28;20178;-73
2023/06/13 21:17:21;;;;;;;5.40;2.90;;;;;;;22.85;76.60;99325.97;10368068;28;20038;-73
2023/06/13 21:22:21;;;;;;;13.95;3.33;;;;;;;22.83;76.65;99332.78;10435446;28;20122;-74
2023/06/13 21:27:22;;;;;;;10.27;3.28;;;;;;;22.82;76.91;99340.06;10366775;28;20123;-74
2023/06/13 21:32:23;;;;;;;7.50;3.17;;;;;;;21.97;77.24;99202.66;10434547;28;20037;-74
2023/06/13 21:37:24;;;;;;;10.27;3.20;;;;;;;22.58;77.70;99307.34;10366109;28;20049;-75
2023/06/13 21:42:27;;;;;;;7.85;3.38;;;;;;;22.54;78.09;99304.38;10366479;28;20498;-74
2023/06/13 21:47:29;;;;;;;7.00;2.63;;;;;;;22.56;78.39;99321.16;10366815;28;20042;-74
2023/06/13 21:52:30;;;;;;;7.15;2.92;;;;;;;22.61;78.90;99327.63;10366529;28;20045;-74
2023/06/13 21:57:31;;;;;;;9.93;3.10;;;;;;;22.39;79.05;99288.16;10366462;28;20167;-74
2023/06/13 22:02:32;;;;;;;6.15;2.60;;;;;;;22.14;79.29;99264.59;10433828;28;20489;-76
2023/06/13 22:07:33;;;;;;;7.13;2.85;;;;;;;22.06;79.54;99281.34;10341503;28;20045;-74
2023/06/13 22:17:54;;;;;;;4.15;2.83;;;;;;;22.32;79.88;99326.31;10304885;28;20039;-75
2023/06/13 22:22:57;;;;;;;9.43;3.03;;;;;;;22.30;80.38;99330.34;10285297;28;20104;-75
2023/06/13 22:27:58;;;;;;;7.18;2.92;;;;;;;22.13;80.17;99306.22;10284577;28;20414;-75
2023/06/13 22:32:59;;;;;;;9.00;2.75;;;;;;;22.31;80.68;99337.38;10284970;28;20043;-75
2023/06/13 22:38:01;;;;;;;5.97;2.78;;;;;;;21.82;80.32;99252.13;10284337;28;20039;-75
2023/06/13 22:43:02;;;;;;;14.38;3.22;;;;;;;22.23;80.48;99322.50;10284968;28;20071;-74
2023/06/13 22:48:04;;;;;;;21.70;3.80;;;;;;;22.40;80.87;99346.59;10369577;28;20092;-75
2023/06/13 22:53:06;;;;;;;4.97;2.63;;;;;;;22.21;80.79;99332.78;10291412;28;20047;-74
2023/06/13 22:58:07;;;;;;;7.65;2.88;;;;;;;22.41;80.44;99359.06;10290762;28;20123;-75
2023/06/13 23:03:08;;;;;;;10.50;2.97;;;;;;;22.15;80.55;99319.50;10358111;28;20141;-75
2023/06/13 23:08:08;;;;;;;7.78;2.78;;;;;;;22.25;80.76;99341.97;10291041;28;20546;-75
2023/06/13 23:13:09;;;;;;;4.90;2.80;;;;;;;22.22;81.17;99334.41;10290901;28;20126;-75
2023/06/13 23:18:10;;;;;;;6.68;2.63;;;;;;;22.17;81.62;99344.44;10297932;28;20031;-74
2023/06/13 23:23:11;;;;;;;6.35;2.65;;;;;;;21.67;81.89;99265.63;10329420;28;20061;-74
2023/06/13 23:28:12;;;;;;;5.55;3.00;;;;;;;22.16;81.96;99362.50;10329961;28;20061;-74